sensor_id;sensor_type;location;lat;lon;timestamp;pressure;altitude;pressure_sealevel;temperature;humidity
9009;BME280;62813;51.424;6.762;2023-02-15T00:01:36;102678.31;;;5.69;74.25
9009;BME280;62813;51.424;6.762;2023-02-15T00:04:04;102677.44;;;5.69;74.35
9009;BME280;62813;51.424;6.762;2023-02-15T00:06:32;102672.28;;;5.69;74.64
9009;BME280;62813;51.424;6.762;2023-02-15T00:08:59;102674.00;;;5.66;74.31
9009;BME280;62813;51.424;6.762;2023-02-15T00:11:25;102665.41;;;5.64;74.30
9009;BME280;62813;51.424;6.762;2023-02-15T00:14:12;102665.34;;;5.61;74.37
9009;BME280;62813;51.424;6.762;2023-02-15T00:16:40;102661.09;;;5.63;74.60
9009;BME280;62813;51.424;6.762;2023-02-15T00:19:09;102662.78;;;5.60;74.21
9009;BME280;62813;51.424;6.762;2023-02-15T00:21:36;102655.06;;;5.61;74.26
9009;BME280;62813;51.424;6.762;2023-02-15T00:24:04;102661.03;;;5.59;74.24
9009;BME280;62813;51.424;6.762;2023-02-15T00:26:32;102659.25;;;5.52;73.87
9009;BME280;62813;51.424;6.762;2023-02-15T00:28:59;102660.09;;;5.49;74.24
9009;BME280;62813;51.424;6.762;2023-02-15T00:31:31;102649.75;;;5.46;74.55
9009;BME280;62813;51.424;6.762;2023-02-15T00:36:39;102648.03;;;5.45;74.38
9009;BME280;62813;51.424;6.762;2023-02-15T00:39:06;102651.47;;;5.47;74.50
9009;BME280;62813;51.424;6.762;2023-02-15T00:41:34;102654.84;;;5.42;74.41
9009;BME280;62813;51.424;6.762;2023-02-15T00:44:00;102647.16;;;5.45;74.53
9009;BME280;62813;51.424;6.762;2023-02-15T00:46:27;102649.72;;;5.43;74.67
9009;BME280;62813;51.424;6.762;2023-02-15T00:48:54;102649.69;;;5.40;73.85
9009;BME280;62813;51.424;6.762;2023-02-15T00:51:21;102651.38;;;5.36;74.50
9009;BME280;62813;51.424;6.762;2023-02-15T00:53:48;102638.50;;;5.39;74.58
9009;BME280;62813;51.424;6.762;2023-02-15T00:56:14;102647.13;;;5.42;74.41
9009;BME280;62813;51.424;6.762;2023-02-15T00:58:42;102644.50;;;5.38;74.31
9009;BME280;62813;51.424;6.762;2023-02-15T01:01:14;102637.63;;;5.36;74.26
9009;BME280;62813;51.424;6.762;2023-02-15T01:03:42;102646.16;;;5.32;74.39
9009;BME280;62813;51.424;6.762;2023-02-15T01:06:10;102644.44;;;5.29;74.25
9009;BME280;62813;51.424;6.762;2023-02-15T01:08:39;102653.81;;;5.27;74.65
9009;BME280;62813;51.424;6.762;2023-02-15T01:11:17;102647.81;;;5.27;74.50
9009;BME280;62813;51.424;6.762;2023-02-15T01:13:52;102649.53;;;5.28;74.55
9009;BME280;62813;51.424;6.762;2023-02-15T01:16:20;102651.25;;;5.27;74.80
9009;BME280;62813;51.424;6.762;2023-02-15T01:18:47;102653.81;;;5.26;74.71
9009;BME280;62813;51.424;6.762;2023-02-15T01:21:18;102649.50;;;5.23;74.11
9009;BME280;62813;51.424;6.762;2023-02-15T01:23:45;102643.44;;;5.20;74.73
9009;BME280;62813;51.424;6.762;2023-02-15T01:26:12;102646.06;;;5.21;74.80
9009;BME280;62813;51.424;6.762;2023-02-15T01:28:39;102640.06;;;5.24;74.49
9009;BME280;62813;51.424;6.762;2023-02-15T01:31:14;102639.22;;;5.25;74.54
9009;BME280;62813;51.424;6.762;2023-02-15T01:33:41;102637.50;;;5.24;74.29
9009;BME280;62813;51.424;6.762;2023-02-15T01:36:08;102634.00;;;5.19;74.36
9009;BME280;62813;51.424;6.762;2023-02-15T01:38:35;102633.13;;;5.18;74.66
9009;BME280;62813;51.424;6.762;2023-02-15T01:41:03;102631.41;;;5.17;74.49
9009;BME280;62813;51.424;6.762;2023-02-15T01:44:00;102634.78;;;5.13;74.12
9009;BME280;62813;51.424;6.762;2023-02-15T01:46:33;102628.75;;;5.09;74.69
9009;BME280;62813;51.424;6.762;2023-02-15T01:49:14;102630.47;;;5.10;74.44
9009;BME280;62813;51.424;6.762;2023-02-15T01:51:42;102627.03;;;5.08;74.40
9009;BME280;62813;51.424;6.762;2023-02-15T01:54:31;102626.97;;;5.05;74.47
9009;BME280;62813;51.424;6.762;2023-02-15T01:57:03;102626.09;;;5.02;74.89
9009;BME280;62813;51.424;6.762;2023-02-15T01:59:31;102632.00;;;4.96;74.58
9009;BME280;62813;51.424;6.762;2023-02-15T02:01:59;102621.72;;;4.96;75.30
9009;BME280;62813;51.424;6.762;2023-02-15T02:04:41;102617.47;;;5.00;74.98
9009;BME280;62813;51.424;6.762;2023-02-15T02:07:12;102605.44;;;4.99;74.90
9009;BME280;62813;51.424;6.762;2023-02-15T02:09:40;102603.69;;;4.93;74.89
9009;BME280;62813;51.424;6.762;2023-02-15T02:12:08;102598.50;;;4.92;75.14
9009;BME280;62813;51.424;6.762;2023-02-15T02:14:36;102602.75;;;4.88;74.60
9009;BME280;62813;51.424;6.762;2023-02-15T02:25:45;102590.66;;;4.79;75.05
9009;BME280;62813;51.424;6.762;2023-02-15T02:28:59;102585.53;;;4.81;75.50
9009;BME280;62813;51.424;6.762;2023-02-15T02:39:47;102578.50;;;4.71;75.17
9009;BME280;62813;51.424;6.762;2023-02-15T02:42:39;102574.22;;;4.68;75.39
9009;BME280;62813;51.424;6.762;2023-02-15T02:45:16;102567.31;;;4.66;75.20
9009;BME280;62813;51.424;6.762;2023-02-15T02:47:49;102563.84;;;4.64;75.51
9009;BME280;62813;51.424;6.762;2023-02-15T02:50:22;102565.53;;;4.59;75.68
9009;BME280;62813;51.424;6.762;2023-02-15T02:52:51;102568.13;;;4.62;75.67
9009;BME280;62813;51.424;6.762;2023-02-15T02:55:26;102558.69;;;4.61;75.62
9009;BME280;62813;51.424;6.762;2023-02-15T02:58:00;102552.69;;;4.62;75.64
9009;BME280;62813;51.424;6.762;2023-02-15T03:00:30;102552.69;;;4.60;75.60
9009;BME280;62813;51.424;6.762;2023-02-15T03:03:24;102550.09;;;4.60;75.85
9009;BME280;62813;51.424;6.762;2023-02-15T03:05:54;102544.84;;;4.51;75.62
9009;BME280;62813;51.424;6.762;2023-02-15T03:08:26;102547.34;;;4.46;75.68
9009;BME280;62813;51.424;6.762;2023-02-15T03:10:57;102545.63;;;4.45;75.58
9009;BME280;62813;51.424;6.762;2023-02-15T03:13:25;102542.16;;;4.43;75.95
9009;BME280;62813;51.424;6.762;2023-02-15T03:15:52;102533.63;;;4.44;76.00
9009;BME280;62813;51.424;6.762;2023-02-15T03:18:44;102535.25;;;4.39;75.50
9009;BME280;62813;51.424;6.762;2023-02-15T03:21:26;102544.72;;;4.42;75.89
9009;BME280;62813;51.424;6.762;2023-02-15T03:24:04;102529.28;;;4.40;76.06
9009;BME280;62813;51.424;6.762;2023-02-15T03:26:34;102537.88;;;4.42;76.58
9009;BME280;62813;51.424;6.762;2023-02-15T03:29:03;102538.78;;;4.47;76.12
9009;BME280;62813;51.424;6.762;2023-02-15T03:31:34;102542.16;;;4.43;75.85
9009;BME280;62813;51.424;6.762;2023-02-15T03:34:07;102543.06;;;4.44;75.88
9009;BME280;62813;51.424;6.762;2023-02-15T03:36:52;102543.06;;;4.45;76.16
9009;BME280;62813;51.424;6.762;2023-02-15T03:39:51;102537.06;;;4.45;75.94
9009;BME280;62813;51.424;6.762;2023-02-15T03:42:31;102538.72;;;4.41;76.04
9009;BME280;62813;51.424;6.762;2023-02-15T03:45:11;102541.25;;;4.37;75.74
9009;BME280;62813;51.424;6.762;2023-02-15T03:47:47;102536.97;;;4.37;76.19
9009;BME280;62813;51.424;6.762;2023-02-15T03:50:21;102531.84;;;4.39;76.16
9009;BME280;62813;51.424;6.762;2023-02-15T03:53:11;102533.41;;;4.29;76.02
9009;BME280;62813;51.424;6.762;2023-02-15T03:55:40;102537.66;;;4.27;76.22
9009;BME280;62813;51.424;6.762;2023-02-15T03:58:07;102533.38;;;4.26;76.20
9009;BME280;62813;51.424;6.762;2023-02-15T04:00:58;102536.81;;;4.26;76.24
9009;BME280;62813;51.424;6.762;2023-02-15T04:04:16;102532.50;;;4.24;76.05
9009;BME280;62813;51.424;6.762;2023-02-15T04:06:44;102529.06;;;4.25;76.11
9009;BME280;62813;51.424;6.762;2023-02-15T04:09:12;102526.50;;;4.25;76.47
9009;BME280;62813;51.424;6.762;2023-02-15T04:11:57;102528.16;;;4.21;76.69
9009;BME280;62813;51.424;6.762;2023-02-15T04:14:24;102523.88;;;4.20;76.55
9009;BME280;62813;51.424;6.762;2023-02-15T04:17:09;102530.69;;;4.18;76.44
9009;BME280;62813;51.424;6.762;2023-02-15T04:19:36;102530.63;;;4.14;76.65
9009;BME280;62813;51.424;6.762;2023-02-15T04:22:21;102527.19;;;4.12;76.60
9009;BME280;62813;51.424;6.762;2023-02-15T04:25:06;102532.31;;;4.12;76.71
9009;BME280;62813;51.424;6.762;2023-02-15T04:27:44;102526.38;;;4.16;76.76
9009;BME280;62813;51.424;6.762;2023-02-15T04:30:13;102521.25;;;4.16;76.35
9009;BME280;62813;51.424;6.762;2023-02-15T04:32:40;102531.44;;;4.11;76.46
9009;BME280;62813;51.424;6.762;2023-02-15T04:35:08;102524.59;;;4.12;76.64
9009;BME280;62813;51.424;6.762;2023-02-15T04:37:35;102523.72;;;4.10;76.62
9009;BME280;62813;51.424;6.762;2023-02-15T04:40:03;102524.56;;;4.09;76.73
9009;BME280;62813;51.424;6.762;2023-02-15T04:42:30;102523.72;;;4.10;77.01
9009;BME280;62813;51.424;6.762;2023-02-15T04:44:56;102522.78;;;4.05;76.50
9009;BME280;62813;51.424;6.762;2023-02-15T04:47:23;102512.50;;;4.05;76.94
9009;BME280;62813;51.424;6.762;2023-02-15T04:49:50;102519.28;;;3.99;76.76
9009;BME280;62813;51.424;6.762;2023-02-15T04:52:17;102510.69;;;3.97;77.22
9009;BME280;62813;51.424;6.762;2023-02-15T04:54:44;102515.91;;;4.02;77.01
9009;BME280;62813;51.424;6.762;2023-02-15T04:57:11;102515.81;;;3.94;76.72
9009;BME280;62813;51.424;6.762;2023-02-15T04:59:38;102518.38;;;3.94;77.25
9009;BME280;62813;51.424;6.762;2023-02-15T05:02:04;102510.66;;;3.94;77.08
9009;BME280;62813;51.424;6.762;2023-02-15T05:04:31;102514.97;;;3.97;77.22
9009;BME280;62813;51.424;6.762;2023-02-15T05:06:57;102509.84;;;3.98;76.92
9009;BME280;62813;51.424;6.762;2023-02-15T05:09:24;102511.56;;;3.99;76.79
9009;BME280;62813;51.424;6.762;2023-02-15T05:11:51;102512.41;;;3.98;76.93
9009;BME280;62813;51.424;6.762;2023-02-15T05:14:17;102506.44;;;3.99;76.47
9009;BME280;62813;51.424;6.762;2023-02-15T05:16:44;102504.72;;;3.98;76.60
9009;BME280;62813;51.424;6.762;2023-02-15T05:19:10;102502.13;;;3.95;76.79
9009;BME280;62813;51.424;6.762;2023-02-15T05:21:37;102502.13;;;3.97;76.82
9009;BME280;62813;51.424;6.762;2023-02-15T05:24:04;102498.69;;;3.96;76.80
9009;BME280;62813;51.424;6.762;2023-02-15T05:26:51;102502.06;;;3.92;77.03
9009;BME280;62813;51.424;6.762;2023-02-15T05:29:36;102495.19;;;3.91;76.58
9009;BME280;62813;51.424;6.762;2023-02-15T05:32:03;102486.63;;;3.89;77.01
9009;BME280;62813;51.424;6.762;2023-02-15T05:34:30;102497.72;;;3.88;76.94
9009;BME280;62813;51.424;6.762;2023-02-15T05:36:57;102484.88;;;3.88;76.99
9009;BME280;62813;51.424;6.762;2023-02-15T05:39:23;102481.41;;;3.86;76.82
9009;BME280;62813;51.424;6.762;2023-02-15T05:41:50;102481.41;;;3.86;77.02
9009;BME280;62813;51.424;6.762;2023-02-15T05:44:17;102479.75;;;3.88;77.10
9009;BME280;62813;51.424;6.762;2023-02-15T05:46:43;102479.75;;;3.88;77.19
9009;BME280;62813;51.424;6.762;2023-02-15T05:49:10;102477.19;;;3.88;77.38
9009;BME280;62813;51.424;6.762;2023-02-15T05:51:37;102481.50;;;3.92;77.73
9009;BME280;62813;51.424;6.762;2023-02-15T05:54:03;102477.19;;;3.88;77.29
9009;BME280;62813;51.424;6.762;2023-02-15T05:56:30;102478.91;;;3.89;77.50
9009;BME280;62813;51.424;6.762;2023-02-15T05:58:57;102483.97;;;3.86;77.69
9009;BME280;62813;51.424;6.762;2023-02-15T06:01:23;102471.13;;;3.86;77.08
9009;BME280;62813;51.424;6.762;2023-02-15T06:03:50;102480.56;;;3.86;77.55
9009;BME280;62813;51.424;6.762;2023-02-15T06:06:17;102483.16;;;3.87;77.48
9009;BME280;62813;51.424;6.762;2023-02-15T06:08:43;102485.84;;;3.95;78.73
9009;BME280;62813;51.424;6.762;2023-02-15T06:11:10;102480.75;;;4.01;78.73
9009;BME280;62813;51.424;6.762;2023-02-15T06:13:37;102482.53;;;4.04;78.28
9009;BME280;62813;51.424;6.762;2023-02-15T06:16:05;102489.47;;;4.09;78.37
9009;BME280;62813;51.424;6.762;2023-02-15T06:18:32;102477.50;;;4.11;78.03
9009;BME280;62813;51.424;6.762;2023-02-15T06:20:59;102484.34;;;4.12;78.24
9009;BME280;62813;51.424;6.762;2023-02-15T06:23:26;102490.34;;;4.13;78.08
9009;BME280;62813;51.424;6.762;2023-02-15T06:25:53;102488.72;;;4.18;77.95
9009;BME280;62813;51.424;6.762;2023-02-15T06:28:19;102482.75;;;4.22;77.64
9009;BME280;62813;51.424;6.762;2023-02-15T06:30:46;102483.66;;;4.24;77.58
9009;BME280;62813;51.424;6.762;2023-02-15T06:33:13;102490.53;;;4.26;77.09
9009;BME280;62813;51.424;6.762;2023-02-15T06:35:39;102493.97;;;4.27;77.24
9009;BME280;62813;51.424;6.762;2023-02-15T06:38:06;102496.53;;;4.25;77.09
9009;BME280;62813;51.424;6.762;2023-02-15T06:40:32;102502.56;;;4.29;76.99
9009;BME280;62813;51.424;6.762;2023-02-15T06:42:59;102493.97;;;4.28;77.04
9009;BME280;62813;51.424;6.762;2023-02-15T06:45:27;102496.59;;;4.30;76.74
9009;BME280;62813;51.424;6.762;2023-02-15T06:47:54;102492.28;;;4.29;76.27
9009;BME280;62813;51.424;6.762;2023-02-15T06:50:21;102500.03;;;4.31;76.93
9009;BME280;62813;51.424;6.762;2023-02-15T06:52:47;102506.88;;;4.32;76.20
9009;BME280;62813;51.424;6.762;2023-02-15T06:55:14;102502.63;;;4.34;76.71
9009;BME280;62813;51.424;6.762;2023-02-15T06:57:41;102506.91;;;4.35;76.87
9009;BME280;62813;51.424;6.762;2023-02-15T07:00:08;102501.84;;;4.38;76.67
9009;BME280;62813;51.424;6.762;2023-02-15T07:02:34;102506.13;;;4.37;75.95
9009;BME280;62813;51.424;6.762;2023-02-15T07:05:01;102505.97;;;4.28;75.71
9009;BME280;62813;51.424;6.762;2023-02-15T07:07:28;102498.22;;;4.25;75.65
9009;BME280;62813;51.424;6.762;2023-02-15T07:09:55;102499.09;;;4.24;75.33
9009;BME280;62813;51.424;6.762;2023-02-15T07:12:21;102496.44;;;4.18;75.86
9009;BME280;62813;51.424;6.762;2023-02-15T07:15:10;102489.56;;;4.17;75.75
9009;BME280;62813;51.424;6.762;2023-02-15T07:17:38;102495.56;;;4.16;75.51
9009;BME280;62813;51.424;6.762;2023-02-15T07:20:12;102485.28;;;4.19;75.41
9009;BME280;62813;51.424;6.762;2023-02-15T07:22:39;102492.97;;;4.16;75.23
9009;BME280;62813;51.424;6.762;2023-02-15T07:25:08;102491.28;;;4.16;75.24
9009;BME280;62813;51.424;6.762;2023-02-15T07:27:35;102476.75;;;4.20;74.97
9009;BME280;62813;51.424;6.762;2023-02-15T07:30:03;102479.38;;;4.23;74.92
9009;BME280;62813;51.424;6.762;2023-02-15T07:32:31;102480.31;;;4.30;74.91
9009;BME280;62813;51.424;6.762;2023-02-15T07:34:58;102472.41;;;4.16;74.94
9009;BME280;62813;51.424;6.762;2023-02-15T07:37:26;102463.03;;;4.21;74.53
9009;BME280;62813;51.424;6.762;2023-02-15T07:39:53;102459.63;;;4.22;74.67
9009;BME280;62813;51.424;6.762;2023-02-15T07:42:22;102457.03;;;4.19;74.69
9009;BME280;62813;51.424;6.762;2023-02-15T07:44:49;102457.97;;;4.24;74.67
9009;BME280;62813;51.424;6.762;2023-02-15T07:47:16;102449.47;;;4.31;74.43
9009;BME280;62813;51.424;6.762;2023-02-15T07:49:42;102448.66;;;4.35;74.58
9009;BME280;62813;51.424;6.762;2023-02-15T07:52:09;102451.22;;;4.35;74.66
9009;BME280;62813;51.424;6.762;2023-02-15T07:54:36;102442.72;;;4.42;74.38
9009;BME280;62813;51.424;6.762;2023-02-15T07:57:02;102438.53;;;4.50;73.84
9009;BME280;62813;51.424;6.762;2023-02-15T07:59:29;102448.03;;;4.57;74.17
9009;BME280;62813;51.424;6.762;2023-02-15T08:01:55;102444.59;;;4.55;73.92
9009;BME280;62813;51.424;6.762;2023-02-15T08:04:23;102443.84;;;4.64;73.81
9009;BME280;62813;51.424;6.762;2023-02-15T08:06:52;102436.16;;;4.69;73.13
9009;BME280;62813;51.424;6.762;2023-02-15T08:09:20;102443.03;;;4.70;73.34
9009;BME280;62813;51.424;6.762;2023-02-15T08:11:47;102427.63;;;4.71;72.98
9009;BME280;62813;51.424;6.762;2023-02-15T08:14:24;102432.75;;;4.70;72.91
9009;BME280;62813;51.424;6.762;2023-02-15T08:16:52;102435.44;;;4.80;72.79
9009;BME280;62813;51.424;6.762;2023-02-15T08:19:21;102436.22;;;4.72;72.59
9009;BME280;62813;51.424;6.762;2023-02-15T08:21:50;102428.53;;;4.78;72.62
9009;BME280;62813;51.424;6.762;2023-02-15T08:24:19;102430.31;;;4.82;72.65
9009;BME280;62813;51.424;6.762;2023-02-15T08:26:48;102426.88;;;4.80;72.75
9009;BME280;62813;51.424;6.762;2023-02-15T08:29:17;102429.50;;;4.86;72.58
9009;BME280;62813;51.424;6.762;2023-02-15T08:31:45;102421.88;;;5.00;72.32
9009;BME280;62813;51.424;6.762;2023-02-15T08:34:16;102426.16;;;4.99;72.17
9009;BME280;62813;51.424;6.762;2023-02-15T08:36:43;102424.34;;;4.86;72.22
9009;BME280;62813;51.424;6.762;2023-02-15T08:39:12;102416.66;;;4.89;71.97
9009;BME280;62813;51.424;6.762;2023-02-15T08:41:41;102413.28;;;4.98;72.03
9009;BME280;62813;51.424;6.762;2023-02-15T08:44:09;102415.88;;;4.98;72.02
9009;BME280;62813;51.424;6.762;2023-02-15T08:46:39;102419.41;;;5.07;71.95
9009;BME280;62813;51.424;6.762;2023-02-15T08:49:06;102416.84;;;5.09;71.37
9009;BME280;62813;51.424;6.762;2023-02-15T08:51:35;102412.50;;;5.06;71.62
9009;BME280;62813;51.424;6.762;2023-02-15T08:54:04;102405.69;;;5.13;71.33
9009;BME280;62813;51.424;6.762;2023-02-15T08:56:34;102408.41;;;5.28;71.02
9009;BME280;62813;51.424;6.762;2023-02-15T08:59:01;102404.09;;;5.27;70.87
9009;BME280;62813;51.424;6.762;2023-02-15T09:01:31;102403.31;;;5.42;70.84
9009;BME280;62813;51.424;6.762;2023-02-15T09:04:00;102406.03;;;5.59;70.66
9009;BME280;62813;51.424;6.762;2023-02-15T09:06:28;102385.50;;;5.73;70.11
9009;BME280;62813;51.424;6.762;2023-02-15T09:08:54;102392.38;;;5.71;70.00
9009;BME280;62813;51.424;6.762;2023-02-15T09:11:29;102395.81;;;5.73;70.04
9009;BME280;62813;51.424;6.762;2023-02-15T09:14:05;102397.53;;;5.71;69.30
9009;BME280;62813;51.424;6.762;2023-02-15T09:16:33;102404.34;;;5.69;69.81
9009;BME280;62813;51.424;6.762;2023-02-15T09:19:01;102389.78;;;5.72;69.20
9009;BME280;62813;51.424;6.762;2023-02-15T09:21:31;102387.22;;;5.71;69.20
9009;BME280;62813;51.424;6.762;2023-02-15T09:24:00;102391.56;;;5.82;68.75
9009;BME280;62813;51.424;6.762;2023-02-15T09:26:29;102396.78;;;5.96;69.31
9009;BME280;62813;51.424;6.762;2023-02-15T09:28:58;102400.25;;;6.00;68.57
9009;BME280;62813;51.424;6.762;2023-02-15T09:31:32;102401.13;;;6.06;68.71
9009;BME280;62813;51.424;6.762;2023-02-15T09:34:00;102400.25;;;6.00;67.84
9009;BME280;62813;51.424;6.762;2023-02-15T09:36:31;102402.81;;;6.04;67.95
9009;BME280;62813;51.424;6.762;2023-02-15T09:47:39;102390.81;;;6.12;67.23
9009;BME280;62813;51.424;6.762;2023-02-15T10:13:40;102399.63;;;6.82;65.59
9009;BME280;62813;51.424;6.762;2023-02-15T10:16:26;102396.19;;;6.86;65.66
9009;BME280;62813;51.424;6.762;2023-02-15T10:19:04;102394.47;;;6.86;65.31
9009;BME280;62813;51.424;6.762;2023-02-15T10:22:13;102397.91;;;6.84;65.26
9009;BME280;62813;51.424;6.762;2023-02-15T10:27:32;102388.44;;;6.92;65.09
9009;BME280;62813;51.424;6.762;2023-02-15T10:33:07;102385.88;;;7.13;64.99
9009;BME280;62813;51.424;6.762;2023-02-15T10:38:43;102383.25;;;7.10;64.54
9009;BME280;62813;51.424;6.762;2023-02-15T10:41:26;102382.41;;;7.08;64.89
9009;BME280;62813;51.424;6.762;2023-02-15T10:49:48;102378.94;;;7.37;64.36
9009;BME280;62813;51.424;6.762;2023-02-15T10:52:25;102372.03;;;7.39;63.94
9009;BME280;62813;51.424;6.762;2023-02-15T10:55:06;102376.34;;;7.37;63.84
9009;BME280;62813;51.424;6.762;2023-02-15T10:57:48;102368.59;;;7.47;63.50
9009;BME280;62813;51.424;6.762;2023-02-15T11:00:32;102373.78;;;7.40;63.00
9009;BME280;62813;51.424;6.762;2023-02-15T11:06:06;102358.25;;;7.46;63.61
9009;BME280;62813;51.424;6.762;2023-02-15T11:08:50;102361.69;;;7.45;63.30
9009;BME280;62813;51.424;6.762;2023-02-15T11:11:30;102356.50;;;7.52;62.93
9009;BME280;62813;51.424;6.762;2023-02-15T11:14:03;102366.84;;;7.63;63.61
9009;BME280;62813;51.424;6.762;2023-02-15T11:16:34;102363.34;;;7.73;62.86
9009;BME280;62813;51.424;6.762;2023-02-15T11:21:36;102371.09;;;7.82;62.95
9009;BME280;62813;51.424;6.762;2023-02-15T11:26:42;102368.44;;;7.92;62.95
9009;BME280;62813;51.424;6.762;2023-02-15T11:29:26;102364.97;;;7.99;61.82
9009;BME280;62813;51.424;6.762;2023-02-15T11:32:23;102358.09;;;7.98;61.71
9009;BME280;62813;51.424;6.762;2023-02-15T11:34:58;102358.97;;;7.94;61.81
9009;BME280;62813;51.424;6.762;2023-02-15T11:37:51;102357.22;;;8.00;62.06
9009;BME280;62813;51.424;6.762;2023-02-15T11:40:41;102358.91;;;8.07;61.58
9009;BME280;62813;51.424;6.762;2023-02-15T11:43:18;102351.13;;;8.12;61.49
9009;BME280;62813;51.424;6.762;2023-02-15T11:45:48;102342.50;;;8.11;61.95
9009;BME280;62813;51.424;6.762;2023-02-15T11:48:15;102342.44;;;8.22;61.80
9009;BME280;62813;51.424;6.762;2023-02-15T11:50:43;102334.63;;;8.28;61.62
9009;BME280;62813;51.424;6.762;2023-02-15T11:53:15;102334.63;;;8.33;61.75
9009;BME280;62813;51.424;6.762;2023-02-15T11:55:46;102327.69;;;8.35;61.07
9009;BME280;62813;51.424;6.762;2023-02-15T12:04:04;102320.72;;;8.48;60.80
9009;BME280;62813;51.424;6.762;2023-02-15T12:06:37;102308.59;;;8.51;60.19
9009;BME280;62813;51.424;6.762;2023-02-15T12:09:18;102308.63;;;8.53;60.59
9009;BME280;62813;51.424;6.762;2023-02-15T12:11:49;102300.00;;;8.49;60.51
9009;BME280;62813;51.424;6.762;2023-02-15T12:14:15;102295.69;;;8.53;60.80
9009;BME280;62813;51.424;6.762;2023-02-15T12:16:45;102290.44;;;8.59;60.49
9009;BME280;62813;51.424;6.762;2023-02-15T12:19:29;102282.63;;;8.63;60.14
9009;BME280;62813;51.424;6.762;2023-02-15T12:21:58;102280.03;;;8.65;59.80
9009;BME280;62813;51.424;6.762;2023-02-15T12:24:38;102273.91;;;8.72;60.01
9009;BME280;62813;51.424;6.762;2023-02-15T12:27:26;102277.38;;;8.74;59.60
9009;BME280;62813;51.424;6.762;2023-02-15T12:30:01;102274.72;;;8.80;58.97
9009;BME280;62813;51.424;6.762;2023-02-15T12:32:34;102282.41;;;8.86;59.54
9009;BME280;62813;51.424;6.762;2023-02-15T12:35:13;102278.88;;;8.98;59.28
9009;BME280;62813;51.424;6.762;2023-02-15T12:37:52;102276.22;;;9.09;58.84
9009;BME280;62813;51.424;6.762;2023-02-15T12:40:28;102271.81;;;9.17;58.93
9009;BME280;62813;51.424;6.762;2023-02-15T12:42:57;102267.41;;;9.25;58.67
9009;BME280;62813;51.424;6.762;2023-02-15T12:45:32;102269.00;;;9.35;58.53
9009;BME280;62813;51.424;6.762;2023-02-15T12:50:39;102261.03;;;9.50;58.17
9009;BME280;62813;51.424;6.762;2023-02-15T12:53:14;102256.66;;;9.56;57.35
9009;BME280;62813;51.424;6.762;2023-02-15T12:55:54;102253.16;;;9.60;57.78
9009;BME280;62813;51.424;6.762;2023-02-15T12:58:23;102244.41;;;9.67;57.12
9009;BME280;62813;51.424;6.762;2023-02-15T13:01:19;102242.63;;;9.70;56.41
9009;BME280;62813;51.424;6.762;2023-02-15T13:04:04;102245.28;;;9.67;56.95
9009;BME280;62813;51.424;6.762;2023-02-15T13:06:47;102247.84;;;9.69;56.78
9009;BME280;62813;51.424;6.762;2023-02-15T13:09:17;102236.56;;;9.71;57.00
9009;BME280;62813;51.424;6.762;2023-02-15T13:11:46;102236.56;;;9.73;56.57
9009;BME280;62813;51.424;6.762;2023-02-15T13:14:20;102237.28;;;9.83;56.72
9009;BME280;62813;51.424;6.762;2023-02-15T13:16:50;102222.50;;;9.89;56.77
9009;BME280;62813;51.424;6.762;2023-02-15T13:19:28;102215.41;;;10.00;56.35
9009;BME280;62813;51.424;6.762;2023-02-15T13:21:57;102222.22;;;10.08;56.08
9009;BME280;62813;51.424;6.762;2023-02-15T13:24:27;102207.50;;;10.06;56.13
9009;BME280;62813;51.424;6.762;2023-02-15T13:26:57;102206.75;;;10.00;55.84
9009;BME280;62813;51.424;6.762;2023-02-15T13:29:39;102205.88;;;10.02;55.87
9009;BME280;62813;51.424;6.762;2023-02-15T13:32:30;102211.00;;;10.05;55.69
9009;BME280;62813;51.424;6.762;2023-02-15T13:35:01;102208.28;;;10.15;55.70
9009;BME280;62813;51.424;6.762;2023-02-15T13:51:43;102179.38;;;10.34;55.70
9009;BME280;62813;51.424;6.762;2023-02-15T13:54:23;102187.94;;;10.40;55.55
9009;BME280;62813;51.424;6.762;2023-02-15T14:07:56;102177.44;;;10.47;53.96
9009;BME280;62813;51.424;6.762;2023-02-15T14:21:47;102178.25;;;10.49;54.39
9009;BME280;62813;51.424;6.762;2023-02-15T14:24:25;102185.13;;;10.53;55.13
9009;BME280;62813;51.424;6.762;2023-02-15T14:29:42;102178.22;;;10.52;55.26
9009;BME280;62813;51.424;6.762;2023-02-15T14:32:33;102168.72;;;10.51;54.66
9009;BME280;62813;51.424;6.762;2023-02-15T14:35:13;102159.94;;;10.58;54.30
9009;BME280;62813;51.424;6.762;2023-02-15T14:37:50;102158.22;;;10.57;54.70
9009;BME280;62813;51.424;6.762;2023-02-15T14:43:44;102157.47;;;10.51;53.40
9009;BME280;62813;51.424;6.762;2023-02-15T14:48:47;102165.31;;;10.48;53.09
9009;BME280;62813;51.424;6.762;2023-02-15T14:54:56;102162.72;;;10.48;54.08
9009;BME280;62813;51.424;6.762;2023-02-15T15:02:15;102153.25;;;10.45;55.22
9009;BME280;62813;51.424;6.762;2023-02-15T15:05:00;102148.06;;;10.45;55.39
9009;BME280;62813;51.424;6.762;2023-02-15T15:07:52;102148.97;;;10.43;55.54
9009;BME280;62813;51.424;6.762;2023-02-15T15:12:49;102148.97;;;10.43;55.54
9009;BME280;62813;51.424;6.762;2023-02-15T15:20:39;102150.66;;;10.45;55.67
9009;BME280;62813;51.424;6.762;2023-02-15T15:50:39;102155.63;;;10.08;59.19
9009;BME280;62813;51.424;6.762;2023-02-15T15:53:16;102148.72;;;10.05;59.46
9009;BME280;62813;51.424;6.762;2023-02-15T15:55:46;102155.78;;;9.97;59.69
9009;BME280;62813;51.424;6.762;2023-02-15T15:58:16;102159.28;;;9.96;59.90
9009;BME280;62813;51.424;6.762;2023-02-15T16:00:48;102162.75;;;9.95;59.79
9009;BME280;62813;51.424;6.762;2023-02-15T16:03:23;102169.72;;;9.93;60.13
9009;BME280;62813;51.424;6.762;2023-02-15T16:05:50;102162.84;;;9.89;60.16
9009;BME280;62813;51.424;6.762;2023-02-15T16:08:30;102154.25;;;9.87;60.30
9009;BME280;62813;51.424;6.762;2023-02-15T16:10:58;102163.75;;;9.85;60.46
9009;BME280;62813;51.424;6.762;2023-02-15T16:13:25;102159.50;;;9.81;60.43
9009;BME280;62813;51.424;6.762;2023-02-15T16:15:54;102154.38;;;9.76;60.66
9009;BME280;62813;51.424;6.762;2023-02-15T16:18:24;102149.22;;;9.75;60.72
9009;BME280;62813;51.424;6.762;2023-02-15T16:20:54;102143.22;;;9.71;60.67
9009;BME280;62813;51.424;6.762;2023-02-15T16:23:56;102156.22;;;9.70;60.76
9009;BME280;62813;51.424;6.762;2023-02-15T16:29:36;102157.25;;;9.57;61.60
9009;BME280;62813;51.424;6.762;2023-02-15T16:32:17;102149.56;;;9.50;61.54